sensor_id;sensor_type;location;lat;lon;timestamp;pressure;altitude;pressure_sealevel;temperature;humidity
17060;BME280;8646;49.716;9.266;2023-09-08T00:02:28;100556.53;;;17.19;72.27
17060;BME280;8646;49.716;9.266;2023-09-08T00:05:31;100547.56;;;17.16;72.64
17060;BME280;8646;49.716;9.266;2023-09-08T00:08:34;100553.44;;;17.10;73.58
17060;BME280;8646;49.716;9.266;2023-09-08T00:11:37;100559.00;;;17.09;72.71
17060;BME280;8646;49.716;9.266;2023-09-08T00:14:40;100556.56;;;17.04;73.62
17060;BME280;8646;49.716;9.266;2023-09-08T00:17:47;100550.31;;;17.02;72.96
17060;BME280;8646;49.716;9.266;2023-09-08T00:20:50;100557.94;;;16.97;72.74
17060;BME280;8646;49.716;9.266;2023-09-08T00:23:53;100555.53;;;16.93;74.52
17060;BME280;8646;49.716;9.266;2023-09-08T00:26:55;100565.75;;;16.89;74.26
17060;BME280;8646;49.716;9.266;2023-09-08T00:29:58;100562.25;;;16.87;74.30
17060;BME280;8646;49.716;9.266;2023-09-08T00:33:05;100570.56;;;16.86;74.59
17060;BME280;8646;49.716;9.266;2023-09-08T00:36:10;100566.16;;;16.83;73.83
17060;BME280;8646;49.716;9.266;2023-09-08T00:39:13;100557.19;;;16.81;73.03
17060;BME280;8646;49.716;9.266;2023-09-08T00:42:16;100562.88;;;16.78;73.77
17060;BME280;8646;49.716;9.266;2023-09-08T00:45:19;100563.06;;;16.75;74.83
17060;BME280;8646;49.716;9.266;2023-09-08T00:48:23;100568.69;;;16.72;73.70
17060;BME280;8646;49.716;9.266;2023-09-08T00:51:27;100568.91;;;16.69;73.52
17060;BME280;8646;49.716;9.266;2023-09-08T00:54:30;100561.00;;;16.64;74.26
17060;BME280;8646;49.716;9.266;2023-09-08T00:57:33;100567.56;;;16.62;74.08
17060;BME280;8646;49.716;9.266;2023-09-08T01:00:36;100558.53;;;16.60;73.13
17060;BME280;8646;49.716;9.266;2023-09-08T01:03:40;100564.97;;;16.59;73.35
17060;BME280;8646;49.716;9.266;2023-09-08T01:06:43;100565.78;;;16.61;74.87
17060;BME280;8646;49.716;9.266;2023-09-08T01:09:48;100572.59;;;16.54;76.06
17060;BME280;8646;49.716;9.266;2023-09-08T01:12:51;100571.50;;;16.42;76.32
17060;BME280;8646;49.716;9.266;2023-09-08T01:15:54;100563.59;;;16.37;75.79
17060;BME280;8646;49.716;9.266;2023-09-08T01:18:58;100561.16;;;16.33;76.09
17060;BME280;8646;49.716;9.266;2023-09-08T01:22:21;100564.06;;;16.30;76.62
17060;BME280;8646;49.716;9.266;2023-09-08T01:25:28;100564.19;;;16.28;76.33
17060;BME280;8646;49.716;9.266;2023-09-08T01:28:32;100561.53;;;16.27;75.76
17060;BME280;8646;49.716;9.266;2023-09-08T01:31:39;100568.06;;;16.24;75.87
17060;BME280;8646;49.716;9.266;2023-09-08T01:34:42;100565.53;;;16.21;75.43
17060;BME280;8646;49.716;9.266;2023-09-08T01:37:49;100568.72;;;16.14;75.95
17060;BME280;8646;49.716;9.266;2023-09-08T01:40:53;100565.13;;;16.13;75.46
17060;BME280;8646;49.716;9.266;2023-09-08T01:43:55;100551.75;;;16.09;75.60
17060;BME280;8646;49.716;9.266;2023-09-08T01:46:59;100561.13;;;16.05;76.04
17060;BME280;8646;49.716;9.266;2023-09-08T01:50:02;100555.75;;;16.03;75.53
17060;BME280;8646;49.716;9.266;2023-09-08T01:53:05;100558.66;;;16.00;75.98
17060;BME280;8646;49.716;9.266;2023-09-08T01:56:09;100548.78;;;15.97;75.87
17060;BME280;8646;49.716;9.266;2023-09-08T01:59:12;100550.84;;;15.94;76.49
17060;BME280;8646;49.716;9.266;2023-09-08T02:02:15;100551.22;;;15.88;76.54
17060;BME280;8646;49.716;9.266;2023-09-08T02:05:17;100554.94;;;15.87;76.18
17060;BME280;8646;49.716;9.266;2023-09-08T02:08:20;100553.44;;;15.81;76.63
17060;BME280;8646;49.716;9.266;2023-09-08T02:11:24;100552.59;;;15.81;76.95
17060;BME280;8646;49.716;9.266;2023-09-08T02:14:27;100553.81;;;15.75;77.04
17060;BME280;8646;49.716;9.266;2023-09-08T02:17:30;100550.28;;;15.73;77.21
17060;BME280;8646;49.716;9.266;2023-09-08T02:20:33;100553.22;;;15.70;77.68
17060;BME280;8646;49.716;9.266;2023-09-08T02:23:38;100551.53;;;15.68;78.02
17060;BME280;8646;49.716;9.266;2023-09-08T02:26:43;100547.13;;;15.65;77.50
17060;BME280;8646;49.716;9.266;2023-09-08T02:29:46;100547.25;;;15.63;77.79
17060;BME280;8646;49.716;9.266;2023-09-08T02:32:48;100542.78;;;15.62;77.64
17060;BME280;8646;49.716;9.266;2023-09-08T02:35:51;100547.59;;;15.57;77.74
17060;BME280;8646;49.716;9.266;2023-09-08T02:38:54;100548.47;;;15.58;77.06
17060;BME280;8646;49.716;9.266;2023-09-08T02:41:58;100544.13;;;15.55;77.08
17060;BME280;8646;49.716;9.266;2023-09-08T02:45:01;100537.88;;;15.53;77.22
17060;BME280;8646;49.716;9.266;2023-09-08T02:48:04;100540.81;;;15.49;78.14
17060;BME280;8646;49.716;9.266;2023-09-08T02:51:07;100535.47;;;15.47;78.00
17060;BME280;8646;49.716;9.266;2023-09-08T02:54:10;100544.72;;;15.45;77.94
17060;BME280;8646;49.716;9.266;2023-09-08T02:57:14;100542.25;;;15.40;77.95
17060;BME280;8646;49.716;9.266;2023-09-08T03:00:17;100546.91;;;15.38;77.21
17060;BME280;8646;49.716;9.266;2023-09-08T03:03:21;100549.81;;;15.35;77.34
17060;BME280;8646;49.716;9.266;2023-09-08T03:06:24;100553.78;;;15.30;77.52
17060;BME280;8646;49.716;9.266;2023-09-08T03:09:28;100552.13;;;15.27;78.50
17060;BME280;8646;49.716;9.266;2023-09-08T03:12:32;100544.97;;;15.24;77.59
17060;BME280;8646;49.716;9.266;2023-09-08T03:15:35;100557.94;;;15.21;77.97
17060;BME280;8646;49.716;9.266;2023-09-08T03:18:38;100551.97;;;15.14;77.83
17060;BME280;8646;49.716;9.266;2023-09-08T03:21:41;100563.75;;;15.15;78.60
17060;BME280;8646;49.716;9.266;2023-09-08T03:24:43;100562.88;;;15.14;78.21
17060;BME280;8646;49.716;9.266;2023-09-08T03:27:48;100556.69;;;15.11;78.34
17060;BME280;8646;49.716;9.266;2023-09-08T03:30:50;100554.94;;;15.10;78.15
17060;BME280;8646;49.716;9.266;2023-09-08T03:33:53;100561.47;;;15.07;78.26
17060;BME280;8646;49.716;9.266;2023-09-08T03:36:56;100563.38;;;15.05;78.06
17060;BME280;8646;49.716;9.266;2023-09-08T03:39:59;100566.19;;;15.04;77.90
17060;BME280;8646;49.716;9.266;2023-09-08T03:43:04;100562.88;;;14.99;78.92
17060;BME280;8646;49.716;9.266;2023-09-08T03:46:07;100561.09;;;14.98;79.25
17060;BME280;8646;49.716;9.266;2023-09-08T03:49:09;100561.28;;;14.95;78.40
17060;BME280;8646;49.716;9.266;2023-09-08T03:52:12;100560.47;;;14.93;79.50
17060;BME280;8646;49.716;9.266;2023-09-08T03:55:15;100553.28;;;14.92;78.15
17060;BME280;8646;49.716;9.266;2023-09-08T03:58:19;100551.78;;;14.86;78.92
17060;BME280;8646;49.716;9.266;2023-09-08T04:01:22;100560.03;;;14.84;78.07
17060;BME280;8646;49.716;9.266;2023-09-08T04:04:25;100559.34;;;14.81;79.37
17060;BME280;8646;49.716;9.266;2023-09-08T04:07:28;100565.66;;;14.81;78.27
17060;BME280;8646;49.716;9.266;2023-09-08T04:10:31;100564.25;;;14.74;78.83
17060;BME280;8646;49.716;9.266;2023-09-08T04:13:36;100553.53;;;14.71;78.66
17060;BME280;8646;49.716;9.266;2023-09-08T04:16:38;100555.44;;;14.69;78.44
17060;BME280;8646;49.716;9.266;2023-09-08T04:19:41;100559.31;;;14.65;79.09
17060;BME280;8646;49.716;9.266;2023-09-08T04:22:44;100557.78;;;14.60;79.52
17060;BME280;8646;49.716;9.266;2023-09-08T04:25:48;100566.16;;;14.57;79.10
17060;BME280;8646;49.716;9.266;2023-09-08T04:28:52;100569.13;;;14.52;79.21
17060;BME280;8646;49.716;9.266;2023-09-08T04:31:55;100569.13;;;14.52;79.16
17060;BME280;8646;49.716;9.266;2023-09-08T04:34:58;100569.31;;;14.49;79.96
17060;BME280;8646;49.716;9.266;2023-09-08T04:38:01;100573.06;;;14.46;80.30
17060;BME280;8646;49.716;9.266;2023-09-08T04:41:05;100567.69;;;14.45;79.69
17060;BME280;8646;49.716;9.266;2023-09-08T04:44:09;100545.16;;;14.26;80.11
17060;BME280;8646;49.716;9.266;2023-09-08T04:47:12;100565.03;;;14.43;80.18
17060;BME280;8646;49.716;9.266;2023-09-08T04:50:15;100571.38;;;14.44;79.98
17060;BME280;8646;49.716;9.266;2023-09-08T04:53:18;100573.13;;;14.45;80.72
17060;BME280;8646;49.716;9.266;2023-09-08T04:56:21;100574.91;;;14.46;80.59
17060;BME280;8646;49.716;9.266;2023-09-08T04:59:25;100582.91;;;14.49;80.07
17060;BME280;8646;49.716;9.266;2023-09-08T05:02:28;100584.75;;;14.48;80.28
17060;BME280;8646;49.716;9.266;2023-09-08T05:05:31;100572.91;;;14.49;80.13
17060;BME280;8646;49.716;9.266;2023-09-08T05:08:34;100583.78;;;14.49;80.06
17060;BME280;8646;49.716;9.266;2023-09-08T05:11:37;100592.84;;;14.50;80.21
17060;BME280;8646;49.716;9.266;2023-09-08T05:14:42;100589.16;;;14.51;80.78
17060;BME280;8646;49.716;9.266;2023-09-08T05:17:45;100593.53;;;14.54;80.06
17060;BME280;8646;49.716;9.266;2023-09-08T05:20:47;100574.75;;;14.49;79.50
17060;BME280;8646;49.716;9.266;2023-09-08T05:23:50;100595.59;;;14.66;79.84
17060;BME280;8646;49.716;9.266;2023-09-08T05:26:53;100590.25;;;14.64;80.57
17060;BME280;8646;49.716;9.266;2023-09-08T05:29:58;100605.88;;;14.76;80.74
17060;BME280;8646;49.716;9.266;2023-09-08T05:33:05;100606.25;;;14.86;80.51
17060;BME280;8646;49.716;9.266;2023-09-08T05:36:08;100612.09;;;14.96;81.31
17060;BME280;8646;49.716;9.266;2023-09-08T05:39:15;100596.44;;;14.99;80.61
17060;BME280;8646;49.716;9.266;2023-09-08T05:42:20;100604.34;;;15.04;80.33
17060;BME280;8646;49.716;9.266;2023-09-08T05:45:24;100605.25;;;15.04;80.13
17060;BME280;8646;49.716;9.266;2023-09-08T05:48:27;100600.66;;;15.05;79.86
17060;BME280;8646;49.716;9.266;2023-09-08T05:51:31;100603.38;;;15.05;80.24
17060;BME280;8646;49.716;9.266;2023-09-08T05:54:34;100602.22;;;15.09;79.52
17060;BME280;8646;49.716;9.266;2023-09-08T05:57:37;100609.28;;;15.13;79.92
17060;BME280;8646;49.716;9.266;2023-09-08T06:00:42;100608.94;;;15.19;80.01
17060;BME280;8646;49.716;9.266;2023-09-08T06:03:45;100605.69;;;15.28;79.88
17060;BME280;8646;49.716;9.266;2023-09-08T06:06:48;100599.78;;;15.36;80.83
17060;BME280;8646;49.716;9.266;2023-09-08T06:09:51;100593.72;;;15.62;79.55
17060;BME280;8646;49.716;9.266;2023-09-08T06:12:54;100600.50;;;16.59;79.35
17060;BME280;8646;49.716;9.266;2023-09-08T06:15:58;100585.59;;;17.61;78.83
17060;BME280;8646;49.716;9.266;2023-09-08T06:19:03;100586.81;;;18.48;78.57
17060;BME280;8646;49.716;9.266;2023-09-08T06:22:06;100581.81;;;19.17;72.98
17060;BME280;8646;49.716;9.266;2023-09-08T06:25:09;100575.06;;;19.70;69.73
17060;BME280;8646;49.716;9.266;2023-09-08T06:28:13;100575.22;;;20.14;68.98
17060;BME280;8646;49.716;9.266;2023-09-08T06:31:17;100570.47;;;20.51;65.98
17060;BME280;8646;49.716;9.266;2023-09-08T06:34:20;100581.13;;;20.78;68.16
17060;BME280;8646;49.716;9.266;2023-09-08T06:37:24;100569.13;;;21.02;66.92
17060;BME280;8646;49.716;9.266;2023-09-08T06:40:31;100545.59;;;21.09;66.38
17060;BME280;8646;49.716;9.266;2023-09-08T06:43:34;100571.38;;;21.30;64.51
17060;BME280;8646;49.716;9.266;2023-09-08T06:46:38;100576.00;;;21.07;65.80
17060;BME280;8646;49.716;9.266;2023-09-08T06:49:42;100582.38;;;20.85;66.41
17060;BME280;8646;49.716;9.266;2023-09-08T06:52:45;100573.38;;;21.17;66.54
17060;BME280;8646;49.716;9.266;2023-09-08T06:55:48;100573.91;;;21.22;65.06
17060;BME280;8646;49.716;9.266;2023-09-08T06:58:50;100571.06;;;21.55;65.45
17060;BME280;8646;49.716;9.266;2023-09-08T07:01:55;100578.63;;;20.86;66.34
17060;BME280;8646;49.716;9.266;2023-09-08T07:04:58;100580.06;;;20.11;69.71
17060;BME280;8646;49.716;9.266;2023-09-08T07:08:02;100596.44;;;19.41;73.91
17060;BME280;8646;49.716;9.266;2023-09-08T07:11:05;100593.72;;;18.92;76.46
17060;BME280;8646;49.716;9.266;2023-09-08T07:14:08;100604.25;;;18.60;79.46
17060;BME280;8646;49.716;9.266;2023-09-08T07:17:13;100607.94;;;18.34;81.17
17060;BME280;8646;49.716;9.266;2023-09-08T07:20:16;100604.41;;;18.19;82.63
17060;BME280;8646;49.716;9.266;2023-09-08T07:23:19;100598.91;;;18.06;84.35
17060;BME280;8646;49.716;9.266;2023-09-08T07:26:22;100600.19;;;18.01;84.88
17060;BME280;8646;49.716;9.266;2023-09-08T07:29:25;100598.03;;;18.06;85.61
17060;BME280;8646;49.716;9.266;2023-09-08T07:32:30;100588.16;;;18.03;85.90
17060;BME280;8646;49.716;9.266;2023-09-08T07:35:36;100591.34;;;18.10;86.41
17060;BME280;8646;49.716;9.266;2023-09-08T07:38:39;100591.25;;;18.11;86.22
17060;BME280;8646;49.716;9.266;2023-09-08T07:41:42;100585.81;;;18.24;86.55
17060;BME280;8646;49.716;9.266;2023-09-08T07:44:45;100558.19;;;18.14;86.55
17060;BME280;8646;49.716;9.266;2023-09-08T07:47:49;100581.09;;;18.39;86.02
17060;BME280;8646;49.716;9.266;2023-09-08T07:50:52;100577.28;;;18.54;85.88
17060;BME280;8646;49.716;9.266;2023-09-08T07:53:55;100572.78;;;18.65;85.14
17060;BME280;8646;49.716;9.266;2023-09-08T07:56:58;100578.91;;;18.82;84.79
17060;BME280;8646;49.716;9.266;2023-09-08T08:00:02;100570.69;;;18.94;84.35
17060;BME280;8646;49.716;9.266;2023-09-08T08:03:06;100566.00;;;19.20;82.09
17060;BME280;8646;49.716;9.266;2023-09-08T08:06:10;100565.75;;;19.23;82.41
17060;BME280;8646;49.716;9.266;2023-09-08T08:09:13;100553.63;;;19.38;81.81
17060;BME280;8646;49.716;9.266;2023-09-08T08:12:16;100551.97;;;19.49;81.90
17060;BME280;8646;49.716;9.266;2023-09-08T08:15:19;100552.28;;;19.57;81.43
17060;BME280;8646;49.716;9.266;2023-09-08T08:18:24;100551.34;;;19.69;81.18
17060;BME280;8646;49.716;9.266;2023-09-08T08:21:27;100541.28;;;19.80;80.90
17060;BME280;8646;49.716;9.266;2023-09-08T08:24:32;100541.84;;;19.97;79.10
17060;BME280;8646;49.716;9.266;2023-09-08T08:27:35;100539.03;;;20.09;78.85
17060;BME280;8646;49.716;9.266;2023-09-08T08:30:37;100539.84;;;20.34;78.03
17060;BME280;8646;49.716;9.266;2023-09-08T08:33:42;100532.88;;;20.41;78.06
17060;BME280;8646;49.716;9.266;2023-09-08T08:36:44;100528.88;;;20.56;76.20
17060;BME280;8646;49.716;9.266;2023-09-08T08:39:47;100530.00;;;20.65;76.08
17060;BME280;8646;49.716;9.266;2023-09-08T08:42:54;100521.63;;;20.77;75.29
17060;BME280;8646;49.716;9.266;2023-09-08T08:45:58;100518.22;;;20.96;74.26
17060;BME280;8646;49.716;9.266;2023-09-08T08:49:04;100517.84;;;21.01;74.78
17060;BME280;8646;49.716;9.266;2023-09-08T08:52:08;100510.22;;;21.15;74.06
17060;BME280;8646;49.716;9.266;2023-09-08T08:55:12;100507.31;;;21.28;74.04
17060;BME280;8646;49.716;9.266;2023-09-08T08:58:17;100497.63;;;21.45;72.98
17060;BME280;8646;49.716;9.266;2023-09-08T09:01:23;100506.25;;;21.51;73.13
17060;BME280;8646;49.716;9.266;2023-09-08T09:04:29;100498.03;;;21.72;71.14
17060;BME280;8646;49.716;9.266;2023-09-08T09:07:32;100502.00;;;21.79;70.76
17060;BME280;8646;49.716;9.266;2023-09-08T09:10:35;100496.16;;;21.93;69.19
17060;BME280;8646;49.716;9.266;2023-09-08T09:13:38;100485.84;;;22.06;68.58
17060;BME280;8646;49.716;9.266;2023-09-08T09:16:41;100480.59;;;22.24;67.33
17060;BME280;8646;49.716;9.266;2023-09-08T09:19:46;100472.81;;;22.39;65.86
17060;BME280;8646;49.716;9.266;2023-09-08T09:22:49;100477.25;;;22.51;65.52
17060;BME280;8646;49.716;9.266;2023-09-08T09:25:52;100465.09;;;22.54;65.30
17060;BME280;8646;49.716;9.266;2023-09-08T09:28:55;100477.53;;;22.78;64.86
17060;BME280;8646;49.716;9.266;2023-09-08T09:32:03;100480.31;;;22.88;63.69
17060;BME280;8646;49.716;9.266;2023-09-08T09:35:08;100470.47;;;22.95;63.70
17060;BME280;8646;49.716;9.266;2023-09-08T09:38:12;100465.84;;;23.05;63.17
17060;BME280;8646;49.716;9.266;2023-09-08T09:41:15;100475.03;;;23.15;63.25
17060;BME280;8646;49.716;9.266;2023-09-08T09:44:18;100467.94;;;23.32;61.97
17060;BME280;8646;49.716;9.266;2023-09-08T09:47:21;100463.88;;;23.46;62.89
17060;BME280;8646;49.716;9.266;2023-09-08T09:50:29;100466.53;;;23.57;61.08
17060;BME280;8646;49.716;9.266;2023-09-08T09:53:34;100457.41;;;23.66;61.22
17060;BME280;8646;49.716;9.266;2023-09-08T09:56:39;100467.13;;;23.80;61.79
17060;BME280;8646;49.716;9.266;2023-09-08T09:59:45;100463.34;;;23.90;61.36
17060;BME280;8646;49.716;9.266;2023-09-08T10:02:50;100445.56;;;23.93;60.53
17060;BME280;8646;49.716;9.266;2023-09-08T10:05:54;100457.75;;;24.10;60.73
17060;BME280;8646;49.716;9.266;2023-09-08T10:08:59;100447.28;;;24.23;61.29
17060;BME280;8646;49.716;9.266;2023-09-08T10:12:04;100448.13;;;24.33;59.59
17060;BME280;8646;49.716;9.266;2023-09-08T10:15:09;100444.00;;;24.47;58.81
17060;BME280;8646;49.716;9.266;2023-09-08T10:18:15;100448.47;;;24.57;59.36
17060;BME280;8646;49.716;9.266;2023-09-08T10:21:21;100437.22;;;24.68;59.04
17060;BME280;8646;49.716;9.266;2023-09-08T10:24:27;100427.69;;;24.81;58.41
17060;BME280;8646;49.716;9.266;2023-09-08T10:27:30;100423.97;;;24.90;57.79
17060;BME280;8646;49.716;9.266;2023-09-08T10:30:34;100409.66;;;25.04;56.54
17060;BME280;8646;49.716;9.266;2023-09-08T10:33:38;100411.66;;;25.12;57.38
17060;BME280;8646;49.716;9.266;2023-09-08T10:36:43;100409.59;;;25.31;57.10
17060;BME280;8646;49.716;9.266;2023-09-08T10:39:46;100405.88;;;25.40;56.72
17060;BME280;8646;49.716;9.266;2023-09-08T10:42:49;100405.94;;;25.48;55.37
17060;BME280;8646;49.716;9.266;2023-09-08T10:45:52;100405.16;;;25.56;54.69
17060;BME280;8646;49.716;9.266;2023-09-08T10:49:00;100410.50;;;25.67;53.70
17060;BME280;8646;49.716;9.266;2023-09-08T10:52:07;100398.44;;;25.76;54.10
17060;BME280;8646;49.716;9.266;2023-09-08T10:55:11;100396.41;;;25.87;53.59
17060;BME280;8646;49.716;9.266;2023-09-08T10:58:18;100390.78;;;25.96;53.23
17060;BME280;8646;49.716;9.266;2023-09-08T11:01:22;100404.22;;;26.09;52.09
17060;BME280;8646;49.716;9.266;2023-09-08T11:04:29;100390.56;;;26.15;52.04
17060;BME280;8646;49.716;9.266;2023-09-08T11:07:35;100394.56;;;26.21;50.17
17060;BME280;8646;49.716;9.266;2023-09-08T11:10:38;100396.25;;;26.32;50.75
17060;BME280;8646;49.716;9.266;2023-09-08T11:13:42;100401.69;;;26.41;50.70
17060;BME280;8646;49.716;9.266;2023-09-08T11:16:47;100387.13;;;26.47;49.71
17060;BME280;8646;49.716;9.266;2023-09-08T11:19:51;100397.75;;;26.60;49.58
17060;BME280;8646;49.716;9.266;2023-09-08T11:22:56;100386.38;;;26.71;49.40
17060;BME280;8646;49.716;9.266;2023-09-08T11:25:59;100394.41;;;26.82;49.07
17060;BME280;8646;49.716;9.266;2023-09-08T11:29:03;100384.91;;;26.93;49.12
17060;BME280;8646;49.716;9.266;2023-09-08T11:32:06;100380.94;;;27.04;48.85
17060;BME280;8646;49.716;9.266;2023-09-08T11:35:10;100382.88;;;27.11;48.20
17060;BME280;8646;49.716;9.266;2023-09-08T11:38:15;100369.88;;;27.20;48.30
17060;BME280;8646;49.716;9.266;2023-09-08T11:41:18;100381.72;;;27.30;48.48
17060;BME280;8646;49.716;9.266;2023-09-08T11:44:25;100365.03;;;27.38;48.46
17060;BME280;8646;49.716;9.266;2023-09-08T11:47:28;100363.63;;;27.42;47.93
17060;BME280;8646;49.716;9.266;2023-09-08T11:50:31;100362.44;;;27.45;46.38
17060;BME280;8646;49.716;9.266;2023-09-08T11:53:35;100361.22;;;27.47;46.21
17060;BME280;8646;49.716;9.266;2023-09-08T11:56:40;100351.88;;;27.56;46.21
17060;BME280;8646;49.716;9.266;2023-09-08T11:59:43;100360.03;;;27.66;46.53
17060;BME280;8646;49.716;9.266;2023-09-08T12:02:48;100359.16;;;27.73;46.28
17060;BME280;8646;49.716;9.266;2023-09-08T12:05:52;100361.25;;;27.80;45.53
17060;BME280;8646;49.716;9.266;2023-09-08T12:09:00;100345.25;;;27.82;44.02
17060;BME280;8646;49.716;9.266;2023-09-08T12:12:10;100351.50;;;27.92;45.08
17060;BME280;8646;49.716;9.266;2023-09-08T12:15:33;100346.28;;;28.05;45.01
17060;BME280;8646;49.716;9.266;2023-09-08T12:18:39;100344.50;;;28.12;44.11
17060;BME280;8646;49.716;9.266;2023-09-08T12:21:54;100336.84;;;28.22;43.97
17060;BME280;8646;49.716;9.266;2023-09-08T12:24:59;100341.50;;;28.30;43.97
17060;BME280;8646;49.716;9.266;2023-09-08T12:28:04;100338.56;;;28.31;43.74
17060;BME280;8646;49.716;9.266;2023-09-08T12:31:07;100334.03;;;28.30;43.51
17060;BME280;8646;49.716;9.266;2023-09-08T12:34:11;100337.84;;;28.37;42.81
17060;BME280;8646;49.716;9.266;2023-09-08T12:37:19;100333.47;;;28.43;42.56
17060;BME280;8646;49.716;9.266;2023-09-08T12:40:24;100332.75;;;28.49;42.73
17060;BME280;8646;49.716;9.266;2023-09-08T12:43:27;100332.00;;;28.55;42.95
17060;BME280;8646;49.716;9.266;2023-09-08T12:46:29;100329.22;;;28.55;42.24
17060;BME280;8646;49.716;9.266;2023-09-08T12:49:34;100331.09;;;28.63;42.60
17060;BME280;8646;49.716;9.266;2023-09-08T12:52:36;100325.88;;;28.68;42.85
17060;BME280;8646;49.716;9.266;2023-09-08T12:55:41;100323.97;;;28.68;42.31
17060;BME280;8646;49.716;9.266;2023-09-08T12:58:44;100313.69;;;28.69;41.41
17060;BME280;8646;49.716;9.266;2023-09-08T13:01:47;100311.03;;;28.75;41.63
17060;BME280;8646;49.716;9.266;2023-09-08T13:04:50;100322.34;;;28.82;41.98
17060;BME280;8646;49.716;9.266;2023-09-08T13:07:53;100312.06;;;28.82;41.29
17060;BME280;8646;49.716;9.266;2023-09-08T13:10:57;100311.47;;;28.95;42.02
17060;BME280;8646;49.716;9.266;2023-09-08T13:14:01;100312.66;;;29.01;41.69
17060;BME280;8646;49.716;9.266;2023-09-08T13:17:04;100309.13;;;29.07;41.71
17060;BME280;8646;49.716;9.266;2023-09-08T13:20:08;100294.50;;;29.05;40.66
17060;BME280;8646;49.716;9.266;2023-09-08T13:23:11;100300.19;;;29.11;41.08
17060;BME280;8646;49.716;9.266;2023-09-08T13:26:15;100296.19;;;29.14;40.79
17060;BME280;8646;49.716;9.266;2023-09-08T13:29:18;100294.19;;;29.22;41.03
17060;BME280;8646;49.716;9.266;2023-09-08T13:32:21;100285.66;;;29.24;40.83
17060;BME280;8646;49.716;9.266;2023-09-08T13:35:26;100285.97;;;29.29;40.75
17060;BME280;8646;49.716;9.266;2023-09-08T13:38:29;100281.25;;;29.30;40.43
17060;BME280;8646;49.716;9.266;2023-09-08T13:41:46;100270.28;;;29.28;39.88
17060;BME280;8646;49.716;9.266;2023-09-08T13:44:49;100271.84;;;29.31;39.55
17060;BME280;8646;49.716;9.266;2023-09-08T13:47:52;100266.91;;;29.41;39.61
17060;BME280;8646;49.716;9.266;2023-09-08T13:51:01;100262.50;;;29.46;39.80
17060;BME280;8646;49.716;9.266;2023-09-08T13:54:08;100247.88;;;29.44;38.37
17060;BME280;8646;49.716;9.266;2023-09-08T13:57:15;100251.16;;;29.48;38.95
17060;BME280;8646;49.716;9.266;2023-09-08T14:00:22;100256.66;;;29.56;39.24
17060;BME280;8646;49.716;9.266;2023-09-08T14:03:26;100251.19;;;29.63;39.70
17060;BME280;8646;49.716;9.266;2023-09-08T14:06:31;100245.00;;;29.52;38.75
17060;BME280;8646;49.716;9.266;2023-09-08T14:09:41;100255.38;;;29.44;38.98
17060;BME280;8646;49.716;9.266;2023-09-08T14:12:58;100256.06;;;29.46;39.67
17060;BME280;8646;49.716;9.266;2023-09-08T14:16:01;100253.19;;;29.54;39.74
17060;BME280;8646;49.716;9.266;2023-09-08T14:19:04;100251.56;;;29.59;39.60
17060;BME280;8646;49.716;9.266;2023-09-08T14:22:07;100241.94;;;29.62;38.99
17060;BME280;8646;49.716;9.266;2023-09-08T14:25:10;100252.75;;;29.65;38.04
17060;BME280;8646;49.716;9.266;2023-09-08T14:28:14;100249.94;;;29.65;36.88
17060;BME280;8646;49.716;9.266;2023-09-08T14:31:17;100243.78;;;29.70;37.59
17060;BME280;8646;49.716;9.266;2023-09-08T14:34:20;100236.59;;;29.75;37.63
17060;BME280;8646;49.716;9.266;2023-09-08T14:37:23;100244.19;;;29.81;37.98
17060;BME280;8646;49.716;9.266;2023-09-08T14:40:25;100246.41;;;29.86;38.39
17060;BME280;8646;49.716;9.266;2023-09-08T14:43:30;100250.72;;;29.88;37.81
17060;BME280;8646;49.716;9.266;2023-09-08T14:46:33;100234.38;;;29.85;37.76
17060;BME280;8646;49.716;9.266;2023-09-08T14:49:36;100244.28;;;29.88;37.43
17060;BME280;8646;49.716;9.266;2023-09-08T14:52:39;100240.25;;;29.90;37.88
17060;BME280;8646;49.716;9.266;2023-09-08T14:55:42;100235.31;;;29.92;38.36
17060;BME280;8646;49.716;9.266;2023-09-08T14:58:47;100232.75;;;29.91;38.29
17060;BME280;8646;49.716;9.266;2023-09-08T15:16:33;100222.53;;;29.69;38.53
17060;BME280;8646;49.716;9.266;2023-09-08T15:19:36;100231.94;;;29.68;38.71
17060;BME280;8646;49.716;9.266;2023-09-08T15:22:39;100225.41;;;29.60;38.29
17060;BME280;8646;49.716;9.266;2023-09-08T15:25:42;100224.94;;;29.57;38.84
17060;BME280;8646;49.716;9.266;2023-09-08T15:28:45;100225.81;;;29.57;39.49
17060;BME280;8646;49.716;9.266;2023-09-08T15:31:49;100230.53;;;29.57;38.63
17060;BME280;8646;49.716;9.266;2023-09-08T15:34:52;100226.53;;;29.51;38.10
17060;BME280;8646;49.716;9.266;2023-09-08T15:37:55;100232.13;;;29.51;37.61
17060;BME280;8646;49.716;9.266;2023-09-08T15:41:19;100227.13;;;29.47;38.40
17060;BME280;8646;49.716;9.266;2023-09-08T15:44:22;100226.06;;;29.48;37.95
17060;BME280;8646;49.716;9.266;2023-09-08T15:47:26;100221.56;;;29.47;38.70
17060;BME280;8646;49.716;9.266;2023-09-08T15:50:29;100220.88;;;29.45;40.16
17060;BME280;8646;49.716;9.266;2023-09-08T15:53:32;100225.47;;;29.38;40.44
17060;BME280;8646;49.716;9.266;2023-09-08T15:56:36;100227.06;;;29.32;41.35
17060;BME280;8646;49.716;9.266;2023-09-08T15:59:42;100229.53;;;29.27;41.14
17060;BME280;8646;49.716;9.266;2023-09-08T16:02:46;100229.63;;;29.19;41.73
17060;BME280;8646;49.716;9.266;2023-09-08T16:05:49;100236.13;;;29.11;42.00
17060;BME280;8646;49.716;9.266;2023-09-08T16:08:52;100237.28;;;29.02;41.85
17060;BME280;8646;49.716;9.266;2023-09-08T16:11:54;100231.56;;;28.96;41.53
17060;BME280;8646;49.716;9.266;2023-09-08T16:14:57;100234.03;;;28.91;41.53
17060;BME280;8646;49.716;9.266;2023-09-08T16:18:04;100233.91;;;28.84;41.40
17060;BME280;8646;49.716;9.266;2023-09-08T16:21:13;100223.22;;;28.65;40.98
17060;BME280;8646;49.716;9.266;2023-09-08T16:24:16;100230.41;;;28.59;41.54
17060;BME280;8646;49.716;9.266;2023-09-08T16:27:20;100229.63;;;28.42;42.17
17060;BME280;8646;49.716;9.266;2023-09-08T16:30:30;100226.03;;;28.34;42.33